sensor_id;sensor_type;location;lat;lon;timestamp;temperature;humidity
25410;DHT22;13339;50.840;4.346;2023-06-26T00:02:12;25.60;99.90
25410;DHT22;13339;50.840;4.346;2023-06-26T00:04:37;25.50;99.90
25410;DHT22;13339;50.840;4.346;2023-06-26T00:07:04;25.50;99.90
25410;DHT22;13339;50.840;4.346;2023-06-26T00:09:30;25.40;99.90
25410;DHT22;13339;50.840;4.346;2023-06-26T00:11:56;25.40;99.90
25410;DHT22;13339;50.840;4.346;2023-06-26T00:14:22;25.40;99.90
25410;DHT22;13339;50.840;4.346;2023-06-26T00:16:48;25.20;99.90
25410;DHT22;13339;50.840;4.346;2023-06-26T00:19:16;25.10;99.90
25410;DHT22;13339;50.840;4.346;2023-06-26T00:21:42;25.00;99.90
25410;DHT22;13339;50.840;4.346;2023-06-26T00:24:14;25.00;99.90
25410;DHT22;13339;50.840;4.346;2023-06-26T00:26:40;25.00;99.90
25410;DHT22;13339;50.840;4.346;2023-06-26T00:29:06;24.80;99.90
25410;DHT22;13339;50.840;4.346;2023-06-26T00:31:31;24.80;99.90
25410;DHT22;13339;50.840;4.346;2023-06-26T00:33:58;24.90;99.90
25410;DHT22;13339;50.840;4.346;2023-06-26T00:36:24;24.80;99.90
25410;DHT22;13339;50.840;4.346;2023-06-26T00:38:51;24.60;99.90
25410;DHT22;13339;50.840;4.346;2023-06-26T00:41:17;24.60;99.90
25410;DHT22;13339;50.840;4.346;2023-06-26T00:43:43;24.60;99.90
25410;DHT22;13339;50.840;4.346;2023-06-26T00:46:10;24.40;99.90
25410;DHT22;13339;50.840;4.346;2023-06-26T00:48:36;24.40;99.90
25410;DHT22;13339;50.840;4.346;2023-06-26T00:51:02;24.30;99.90
25410;DHT22;13339;50.840;4.346;2023-06-26T00:53:28;24.20;99.90
25410;DHT22;13339;50.840;4.346;2023-06-26T00:55:54;24.10;99.90
25410;DHT22;13339;50.840;4.346;2023-06-26T00:58:24;24.00;99.90
25410;DHT22;13339;50.840;4.346;2023-06-26T01:00:51;23.80;99.90
25410;DHT22;13339;50.840;4.346;2023-06-26T01:03:17;23.80;99.90
25410;DHT22;13339;50.840;4.346;2023-06-26T01:05:42;23.80;99.90
25410;DHT22;13339;50.840;4.346;2023-06-26T01:08:12;23.70;99.90
25410;DHT22;13339;50.840;4.346;2023-06-26T01:10:38;23.60;99.90
25410;DHT22;13339;50.840;4.346;2023-06-26T01:13:05;23.60;99.90
25410;DHT22;13339;50.840;4.346;2023-06-26T01:15:30;23.60;99.90
25410;DHT22;13339;50.840;4.346;2023-06-26T01:17:57;23.50;99.90
25410;DHT22;13339;50.840;4.346;2023-06-26T01:20:27;23.40;99.90
25410;DHT22;13339;50.840;4.346;2023-06-26T01:23:07;23.50;99.90
25410;DHT22;13339;50.840;4.346;2023-06-26T01:28:16;23.50;99.90
25410;DHT22;13339;50.840;4.346;2023-06-26T01:30:44;23.40;99.90
25410;DHT22;13339;50.840;4.346;2023-06-26T01:33:11;23.40;99.90
25410;DHT22;13339;50.840;4.346;2023-06-26T01:35:37;23.30;99.90
25410;DHT22;13339;50.840;4.346;2023-06-26T01:38:13;23.30;99.90
25410;DHT22;13339;50.840;4.346;2023-06-26T01:40:39;23.30;99.90
25410;DHT22;13339;50.840;4.346;2023-06-26T01:45:50;23.00;99.90
25410;DHT22;13339;50.840;4.346;2023-06-26T01:48:34;23.00;99.90
25410;DHT22;13339;50.840;4.346;2023-06-26T01:51:03;23.10;99.90
25410;DHT22;13339;50.840;4.346;2023-06-26T01:53:40;23.20;99.90
25410;DHT22;13339;50.840;4.346;2023-06-26T01:56:08;23.10;99.90
25410;DHT22;13339;50.840;4.346;2023-06-26T01:58:37;23.10;99.90
25410;DHT22;13339;50.840;4.346;2023-06-26T02:01:03;23.10;99.90
25410;DHT22;13339;50.840;4.346;2023-06-26T02:03:29;23.20;99.90
25410;DHT22;13339;50.840;4.346;2023-06-26T02:05:55;23.10;99.90
25410;DHT22;13339;50.840;4.346;2023-06-26T02:08:21;23.00;99.90
25410;DHT22;13339;50.840;4.346;2023-06-26T02:10:48;23.00;99.90
25410;DHT22;13339;50.840;4.346;2023-06-26T02:13:13;22.90;99.90
25410;DHT22;13339;50.840;4.346;2023-06-26T02:15:39;22.90;99.90
25410;DHT22;13339;50.840;4.346;2023-06-26T02:18:05;22.80;99.90
25410;DHT22;13339;50.840;4.346;2023-06-26T02:20:30;22.70;99.90
25410;DHT22;13339;50.840;4.346;2023-06-26T02:22:56;22.70;99.90
25410;DHT22;13339;50.840;4.346;2023-06-26T02:25:21;22.70;99.90
25410;DHT22;13339;50.840;4.346;2023-06-26T02:27:47;22.60;99.90
25410;DHT22;13339;50.840;4.346;2023-06-26T02:30:13;22.70;99.90
25410;DHT22;13339;50.840;4.346;2023-06-26T02:32:38;22.70;99.90
25410;DHT22;13339;50.840;4.346;2023-06-26T02:35:04;22.80;99.90
25410;DHT22;13339;50.840;4.346;2023-06-26T02:37:30;22.80;99.90
25410;DHT22;13339;50.840;4.346;2023-06-26T02:39:55;22.80;99.90
25410;DHT22;13339;50.840;4.346;2023-06-26T02:42:21;22.70;99.90
25410;DHT22;13339;50.840;4.346;2023-06-26T02:44:46;22.70;99.90
25410;DHT22;13339;50.840;4.346;2023-06-26T02:47:12;22.60;99.90
25410;DHT22;13339;50.840;4.346;2023-06-26T02:49:37;22.60;99.90
25410;DHT22;13339;50.840;4.346;2023-06-26T02:52:03;22.60;99.90
25410;DHT22;13339;50.840;4.346;2023-06-26T02:54:29;22.60;99.90
25410;DHT22;13339;50.840;4.346;2023-06-26T02:56:54;22.50;99.90
25410;DHT22;13339;50.840;4.346;2023-06-26T02:59:20;22.50;99.90
25410;DHT22;13339;50.840;4.346;2023-06-26T03:01:46;22.40;99.90
25410;DHT22;13339;50.840;4.346;2023-06-26T03:04:11;22.30;99.90
25410;DHT22;13339;50.840;4.346;2023-06-26T03:06:37;22.40;99.90
25410;DHT22;13339;50.840;4.346;2023-06-26T03:09:02;22.40;99.90
25410;DHT22;13339;50.840;4.346;2023-06-26T03:11:28;22.20;99.90
25410;DHT22;13339;50.840;4.346;2023-06-26T03:13:54;22.30;99.90
25410;DHT22;13339;50.840;4.346;2023-06-26T03:16:19;22.20;99.90
25410;DHT22;13339;50.840;4.346;2023-06-26T03:18:45;22.10;99.90
25410;DHT22;13339;50.840;4.346;2023-06-26T03:21:10;22.00;99.90
25410;DHT22;13339;50.840;4.346;2023-06-26T03:23:36;21.70;99.90
25410;DHT22;13339;50.840;4.346;2023-06-26T03:26:02;21.80;99.90
25410;DHT22;13339;50.840;4.346;2023-06-26T03:28:27;21.80;99.90
25410;DHT22;13339;50.840;4.346;2023-06-26T03:30:53;21.80;99.90
25410;DHT22;13339;50.840;4.346;2023-06-26T03:33:18;21.80;99.90
25410;DHT22;13339;50.840;4.346;2023-06-26T03:35:44;21.80;99.90
25410;DHT22;13339;50.840;4.346;2023-06-26T03:38:10;21.80;99.90
25410;DHT22;13339;50.840;4.346;2023-06-26T03:40:35;21.80;99.90
25410;DHT22;13339;50.840;4.346;2023-06-26T03:43:01;21.80;99.90
25410;DHT22;13339;50.840;4.346;2023-06-26T03:45:26;21.70;99.90
25410;DHT22;13339;50.840;4.346;2023-06-26T03:47:52;21.70;99.90
25410;DHT22;13339;50.840;4.346;2023-06-26T03:50:18;21.60;99.90
25410;DHT22;13339;50.840;4.346;2023-06-26T03:52:45;21.50;99.90
25410;DHT22;13339;50.840;4.346;2023-06-26T03:55:11;21.60;99.90
25410;DHT22;13339;50.840;4.346;2023-06-26T03:57:37;21.50;99.90
25410;DHT22;13339;50.840;4.346;2023-06-26T04:00:03;21.40;99.90
25410;DHT22;13339;50.840;4.346;2023-06-26T04:02:36;21.40;99.90
25410;DHT22;13339;50.840;4.346;2023-06-26T04:05:02;21.40;99.90
25410;DHT22;13339;50.840;4.346;2023-06-26T04:07:29;21.30;99.90
25410;DHT22;13339;50.840;4.346;2023-06-26T04:09:56;21.30;99.90
25410;DHT22;13339;50.840;4.346;2023-06-26T04:12:22;21.30;99.90
25410;DHT22;13339;50.840;4.346;2023-06-26T04:14:48;21.40;99.90
25410;DHT22;13339;50.840;4.346;2023-06-26T04:17:13;21.40;99.90
25410;DHT22;13339;50.840;4.346;2023-06-26T04:19:39;21.50;99.90
25410;DHT22;13339;50.840;4.346;2023-06-26T04:22:04;21.50;99.90
25410;DHT22;13339;50.840;4.346;2023-06-26T04:24:30;21.50;99.90
25410;DHT22;13339;50.840;4.346;2023-06-26T04:26:56;21.50;99.90
25410;DHT22;13339;50.840;4.346;2023-06-26T04:29:23;21.50;99.90
25410;DHT22;13339;50.840;4.346;2023-06-26T04:31:51;21.50;99.90
25410;DHT22;13339;50.840;4.346;2023-06-26T04:34:17;21.30;99.90
25410;DHT22;13339;50.840;4.346;2023-06-26T04:36:42;21.30;99.90
25410;DHT22;13339;50.840;4.346;2023-06-26T04:39:11;21.30;99.90
25410;DHT22;13339;50.840;4.346;2023-06-26T04:41:37;21.30;99.90
25410;DHT22;13339;50.840;4.346;2023-06-26T04:44:03;21.30;99.90
25410;DHT22;13339;50.840;4.346;2023-06-26T04:46:28;21.20;99.90
25410;DHT22;13339;50.840;4.346;2023-06-26T04:48:54;21.10;99.90
25410;DHT22;13339;50.840;4.346;2023-06-26T04:51:19;21.20;99.90
25410;DHT22;13339;50.840;4.346;2023-06-26T04:53:46;21.20;99.90
25410;DHT22;13339;50.840;4.346;2023-06-26T04:56:11;21.20;99.90
25410;DHT22;13339;50.840;4.346;2023-06-26T04:58:37;21.30;99.90
25410;DHT22;13339;50.840;4.346;2023-06-26T05:01:03;21.20;99.90
25410;DHT22;13339;50.840;4.346;2023-06-26T05:03:32;21.20;99.90
25410;DHT22;13339;50.840;4.346;2023-06-26T05:05:58;21.20;99.90
25410;DHT22;13339;50.840;4.346;2023-06-26T05:08:24;21.20;99.90
25410;DHT22;13339;50.840;4.346;2023-06-26T05:10:52;21.20;99.90
25410;DHT22;13339;50.840;4.346;2023-06-26T05:13:19;21.20;99.90
25410;DHT22;13339;50.840;4.346;2023-06-26T05:15:46;21.20;99.90
25410;DHT22;13339;50.840;4.346;2023-06-26T05:18:12;21.20;99.90
25410;DHT22;13339;50.840;4.346;2023-06-26T05:20:38;21.10;99.90
25410;DHT22;13339;50.840;4.346;2023-06-26T05:23:04;21.00;99.90
25410;DHT22;13339;50.840;4.346;2023-06-26T05:25:30;21.00;99.90
25410;DHT22;13339;50.840;4.346;2023-06-26T05:27:57;21.00;99.90
25410;DHT22;13339;50.840;4.346;2023-06-26T05:30:24;21.10;99.90
25410;DHT22;13339;50.840;4.346;2023-06-26T05:32:53;21.10;99.90
25410;DHT22;13339;50.840;4.346;2023-06-26T05:35:22;21.10;99.90
25410;DHT22;13339;50.840;4.346;2023-06-26T05:37:51;21.20;99.90
25410;DHT22;13339;50.840;4.346;2023-06-26T05:40:18;21.10;99.90
25410;DHT22;13339;50.840;4.346;2023-06-26T05:42:44;21.20;99.90
25410;DHT22;13339;50.840;4.346;2023-06-26T05:45:10;21.10;99.90
25410;DHT22;13339;50.840;4.346;2023-06-26T05:47:36;21.10;99.90
25410;DHT22;13339;50.840;4.346;2023-06-26T05:50:02;21.20;99.90
25410;DHT22;13339;50.840;4.346;2023-06-26T05:52:28;21.30;99.90
25410;DHT22;13339;50.840;4.346;2023-06-26T05:54:54;21.20;99.90
25410;DHT22;13339;50.840;4.346;2023-06-26T05:57:20;21.20;99.90
25410;DHT22;13339;50.840;4.346;2023-06-26T05:59:46;21.10;99.90
25410;DHT22;13339;50.840;4.346;2023-06-26T06:02:12;21.00;99.90
25410;DHT22;13339;50.840;4.346;2023-06-26T06:04:38;21.20;99.90
25410;DHT22;13339;50.840;4.346;2023-06-26T06:07:04;21.10;99.90
25410;DHT22;13339;50.840;4.346;2023-06-26T06:09:29;21.10;99.90
25410;DHT22;13339;50.840;4.346;2023-06-26T06:11:55;21.30;99.90
25410;DHT22;13339;50.840;4.346;2023-06-26T06:14:20;21.20;99.90
25410;DHT22;13339;50.840;4.346;2023-06-26T06:16:46;21.20;99.90
25410;DHT22;13339;50.840;4.346;2023-06-26T06:19:12;21.20;99.90
25410;DHT22;13339;50.840;4.346;2023-06-26T06:21:39;21.20;99.90
25410;DHT22;13339;50.840;4.346;2023-06-26T06:24:05;21.10;99.90
25410;DHT22;13339;50.840;4.346;2023-06-26T06:26:32;21.10;99.90
25410;DHT22;13339;50.840;4.346;2023-06-26T06:28:57;21.20;99.90
25410;DHT22;13339;50.840;4.346;2023-06-26T06:31:23;21.20;99.90
25410;DHT22;13339;50.840;4.346;2023-06-26T06:33:49;21.30;99.90
25410;DHT22;13339;50.840;4.346;2023-06-26T06:36:14;21.20;99.90
25410;DHT22;13339;50.840;4.346;2023-06-26T06:38:43;21.10;99.90
25410;DHT22;13339;50.840;4.346;2023-06-26T06:41:09;21.10;99.90
25410;DHT22;13339;50.840;4.346;2023-06-26T06:43:35;21.30;99.90
25410;DHT22;13339;50.840;4.346;2023-06-26T06:46:01;21.40;99.90
25410;DHT22;13339;50.840;4.346;2023-06-26T06:48:27;21.40;99.90
25410;DHT22;13339;50.840;4.346;2023-06-26T06:50:53;21.40;99.90
25410;DHT22;13339;50.840;4.346;2023-06-26T06:53:18;21.50;99.90
25410;DHT22;13339;50.840;4.346;2023-06-26T06:55:47;21.70;99.90
25410;DHT22;13339;50.840;4.346;2023-06-26T06:58:12;21.60;99.90
25410;DHT22;13339;50.840;4.346;2023-06-26T07:00:38;21.50;99.90
25410;DHT22;13339;50.840;4.346;2023-06-26T07:03:04;21.60;99.90
25410;DHT22;13339;50.840;4.346;2023-06-26T07:05:29;21.70;99.90
25410;DHT22;13339;50.840;4.346;2023-06-26T07:07:55;21.70;99.90
25410;DHT22;13339;50.840;4.346;2023-06-26T07:10:21;21.60;99.90
25410;DHT22;13339;50.840;4.346;2023-06-26T07:12:46;21.70;99.90
25410;DHT22;13339;50.840;4.346;2023-06-26T07:15:12;21.60;99.90
25410;DHT22;13339;50.840;4.346;2023-06-26T07:17:38;21.60;99.90
25410;DHT22;13339;50.840;4.346;2023-06-26T07:20:04;21.70;99.90
25410;DHT22;13339;50.840;4.346;2023-06-26T07:22:32;21.70;99.90
25410;DHT22;13339;50.840;4.346;2023-06-26T07:24:58;21.60;99.90
25410;DHT22;13339;50.840;4.346;2023-06-26T07:27:23;21.80;99.90
25410;DHT22;13339;50.840;4.346;2023-06-26T07:29:49;21.90;99.90
25410;DHT22;13339;50.840;4.346;2023-06-26T07:32:15;22.00;99.90
25410;DHT22;13339;50.840;4.346;2023-06-26T07:34:40;22.00;99.90
25410;DHT22;13339;50.840;4.346;2023-06-26T07:37:06;22.10;99.90
25410;DHT22;13339;50.840;4.346;2023-06-26T07:39:32;22.60;99.90
25410;DHT22;13339;50.840;4.346;2023-06-26T07:41:57;23.40;99.90
25410;DHT22;13339;50.840;4.346;2023-06-26T07:44:26;24.40;99.90
25410;DHT22;13339;50.840;4.346;2023-06-26T07:46:52;25.20;99.90
25410;DHT22;13339;50.840;4.346;2023-06-26T07:49:18;25.90;99.90
25410;DHT22;13339;50.840;4.346;2023-06-26T07:51:43;27.00;99.90
25410;DHT22;13339;50.840;4.346;2023-06-26T07:54:09;28.10;99.90
25410;DHT22;13339;50.840;4.346;2023-06-26T07:59:18;29.40;99.90
25410;DHT22;13339;50.840;4.346;2023-06-26T08:01:44;29.30;99.90
25410;DHT22;13339;50.840;4.346;2023-06-26T08:04:10;30.00;99.90
25410;DHT22;13339;50.840;4.346;2023-06-26T08:06:36;30.70;99.90
25410;DHT22;13339;50.840;4.346;2023-06-26T08:09:08;31.30;99.90
25410;DHT22;13339;50.840;4.346;2023-06-26T08:11:34;31.60;99.90
25410;DHT22;13339;50.840;4.346;2023-06-26T08:13:59;31.40;99.90
25410;DHT22;13339;50.840;4.346;2023-06-26T08:16:25;31.20;99.90
25410;DHT22;13339;50.840;4.346;2023-06-26T08:18:51;30.70;99.90
25410;DHT22;13339;50.840;4.346;2023-06-26T08:21:17;30.30;99.90
25410;DHT22;13339;50.840;4.346;2023-06-26T08:23:42;30.10;99.90
25410;DHT22;13339;50.840;4.346;2023-06-26T08:26:08;29.80;99.90
25410;DHT22;13339;50.840;4.346;2023-06-26T08:28:34;29.10;99.90
25410;DHT22;13339;50.840;4.346;2023-06-26T08:30:59;28.70;99.90
25410;DHT22;13339;50.840;4.346;2023-06-26T08:33:25;28.40;99.90
25410;DHT22;13339;50.840;4.346;2023-06-26T08:35:51;28.10;99.90
25410;DHT22;13339;50.840;4.346;2023-06-26T08:38:16;27.70;99.90
25410;DHT22;13339;50.840;4.346;2023-06-26T08:40:42;27.40;99.90
25410;DHT22;13339;50.840;4.346;2023-06-26T08:43:08;27.20;99.90
25410;DHT22;13339;50.840;4.346;2023-06-26T08:45:33;26.80;99.90
25410;DHT22;13339;50.840;4.346;2023-06-26T08:48:00;26.60;99.90
25410;DHT22;13339;50.840;4.346;2023-06-26T08:50:29;26.40;99.90
25410;DHT22;13339;50.840;4.346;2023-06-26T08:55:41;26.20;99.90
25410;DHT22;13339;50.840;4.346;2023-06-26T08:58:06;25.90;99.90
25410;DHT22;13339;50.840;4.346;2023-06-26T09:00:32;25.50;99.90
25410;DHT22;13339;50.840;4.346;2023-06-26T09:02:59;25.40;99.90
25410;DHT22;13339;50.840;4.346;2023-06-26T09:05:26;25.00;99.90
25410;DHT22;13339;50.840;4.346;2023-06-26T09:07:52;24.90;99.90
25410;DHT22;13339;50.840;4.346;2023-06-26T09:10:21;24.90;99.90
25410;DHT22;13339;50.840;4.346;2023-06-26T09:12:47;24.90;99.90
25410;DHT22;13339;50.840;4.346;2023-06-26T09:15:14;25.00;99.90
25410;DHT22;13339;50.840;4.346;2023-06-26T09:17:40;25.10;99.90
25410;DHT22;13339;50.840;4.346;2023-06-26T09:20:08;25.10;99.90
25410;DHT22;13339;50.840;4.346;2023-06-26T09:22:36;25.00;99.90
25410;DHT22;13339;50.840;4.346;2023-06-26T09:25:04;25.00;99.90
25410;DHT22;13339;50.840;4.346;2023-06-26T09:27:30;25.00;99.90
25410;DHT22;13339;50.840;4.346;2023-06-26T09:29:57;25.00;99.90
25410;DHT22;13339;50.840;4.346;2023-06-26T09:32:27;24.90;99.90
25410;DHT22;13339;50.840;4.346;2023-06-26T09:34:56;24.90;99.90
25410;DHT22;13339;50.840;4.346;2023-06-26T09:37:21;24.80;99.90
25410;DHT22;13339;50.840;4.346;2023-06-26T09:39:48;24.80;99.90
25410;DHT22;13339;50.840;4.346;2023-06-26T09:42:14;24.80;99.90
25410;DHT22;13339;50.840;4.346;2023-06-26T09:44:47;24.70;99.90
25410;DHT22;13339;50.840;4.346;2023-06-26T09:47:16;24.80;99.90
25410;DHT22;13339;50.840;4.346;2023-06-26T09:49:42;24.80;99.90
25410;DHT22;13339;50.840;4.346;2023-06-26T09:52:14;24.70;99.90
25410;DHT22;13339;50.840;4.346;2023-06-26T09:54:42;24.90;99.90
25410;DHT22;13339;50.840;4.346;2023-06-26T09:57:10;25.00;99.90
25410;DHT22;13339;50.840;4.346;2023-06-26T09:59:36;25.00;99.90
25410;DHT22;13339;50.840;4.346;2023-06-26T10:02:02;25.00;99.90
25410;DHT22;13339;50.840;4.346;2023-06-26T10:04:28;25.10;99.90
25410;DHT22;13339;50.840;4.346;2023-06-26T10:06:55;25.20;99.90
25410;DHT22;13339;50.840;4.346;2023-06-26T10:09:22;25.10;99.90
25410;DHT22;13339;50.840;4.346;2023-06-26T10:12:06;25.20;99.90
25410;DHT22;13339;50.840;4.346;2023-06-26T10:14:37;25.20;99.90
25410;DHT22;13339;50.840;4.346;2023-06-26T10:17:15;25.10;99.90
25410;DHT22;13339;50.840;4.346;2023-06-26T10:19:44;25.10;99.90
25410;DHT22;13339;50.840;4.346;2023-06-26T10:22:11;25.00;99.90
25410;DHT22;13339;50.840;4.346;2023-06-26T10:24:39;25.20;99.90
25410;DHT22;13339;50.840;4.346;2023-06-26T10:27:21;25.40;99.90
25410;DHT22;13339;50.840;4.346;2023-06-26T10:29:53;25.50;99.90
25410;DHT22;13339;50.840;4.346;2023-06-26T10:32:20;25.50;99.90
25410;DHT22;13339;50.840;4.346;2023-06-26T10:34:47;25.50;99.90
25410;DHT22;13339;50.840;4.346;2023-06-26T10:37:12;25.60;99.90
25410;DHT22;13339;50.840;4.346;2023-06-26T10:39:51;25.70;99.90
25410;DHT22;13339;50.840;4.346;2023-06-26T10:42:28;25.80;99.90
25410;DHT22;13339;50.840;4.346;2023-06-26T10:45:29;25.80;99.90
25410;DHT22;13339;50.840;4.346;2023-06-26T10:47:57;25.80;99.90
25410;DHT22;13339;50.840;4.346;2023-06-26T10:50:27;26.00;99.90
25410;DHT22;13339;50.840;4.346;2023-06-26T11:01:17;26.00;99.90
25410;DHT22;13339;50.840;4.346;2023-06-26T11:03:46;26.10;99.90
25410;DHT22;13339;50.840;4.346;2023-06-26T11:06:22;26.10;99.90
25410;DHT22;13339;50.840;4.346;2023-06-26T11:14:19;25.70;99.90
25410;DHT22;13339;50.840;4.346;2023-06-26T11:16:45;25.50;99.90
25410;DHT22;13339;50.840;4.346;2023-06-26T11:19:11;25.40;99.90
25410;DHT22;13339;50.840;4.346;2023-06-26T11:21:40;25.40;99.90
25410;DHT22;13339;50.840;4.346;2023-06-26T11:24:06;25.30;99.90
25410;DHT22;13339;50.840;4.346;2023-06-26T11:26:41;25.20;99.90
25410;DHT22;13339;50.840;4.346;2023-06-26T11:29:08;25.20;99.90
25410;DHT22;13339;50.840;4.346;2023-06-26T11:31:38;25.00;99.90
25410;DHT22;13339;50.840;4.346;2023-06-26T11:34:06;24.90;99.90
25410;DHT22;13339;50.840;4.346;2023-06-26T11:36:37;24.80;99.90
25410;DHT22;13339;50.840;4.346;2023-06-26T11:39:04;24.80;99.90
25410;DHT22;13339;50.840;4.346;2023-06-26T11:41:34;24.80;99.90
25410;DHT22;13339;50.840;4.346;2023-06-26T11:44:06;24.70;99.90
25410;DHT22;13339;50.840;4.346;2023-06-26T11:46:33;24.80;99.90
25410;DHT22;13339;50.840;4.346;2023-06-26T11:48:59;24.80;99.90
25410;DHT22;13339;50.840;4.346;2023-06-26T11:51:28;24.90;99.90
25410;DHT22;13339;50.840;4.346;2023-06-26T11:53:54;24.80;99.90
25410;DHT22;13339;50.840;4.346;2023-06-26T11:56:21;24.90;99.90
25410;DHT22;13339;50.840;4.346;2023-06-26T11:59:02;25.00;99.90
25410;DHT22;13339;50.840;4.346;2023-06-26T12:01:39;25.10;99.90
25410;DHT22;13339;50.840;4.346;2023-06-26T12:04:08;25.30;99.90
25410;DHT22;13339;50.840;4.346;2023-06-26T12:06:36;25.60;99.90
25410;DHT22;13339;50.840;4.346;2023-06-26T12:09:05;25.70;99.90
25410;DHT22;13339;50.840;4.346;2023-06-26T12:11:33;25.90;99.90
25410;DHT22;13339;50.840;4.346;2023-06-26T12:14:00;25.80;99.50
25410;DHT22;13339;50.840;4.346;2023-06-26T12:16:28;25.90;99.00
25410;DHT22;13339;50.840;4.346;2023-06-26T12:19:02;26.00;98.50
25410;DHT22;13339;50.840;4.346;2023-06-26T12:24:02;26.20;98.90
25410;DHT22;13339;50.840;4.346;2023-06-26T12:26:28;26.30;99.40
25410;DHT22;13339;50.840;4.346;2023-06-26T12:29:07;26.40;98.00
25410;DHT22;13339;50.840;4.346;2023-06-26T12:31:33;26.30;96.60
25410;DHT22;13339;50.840;4.346;2023-06-26T12:34:00;26.30;96.30
25410;DHT22;13339;50.840;4.346;2023-06-26T12:36:26;26.30;97.20
25410;DHT22;13339;50.840;4.346;2023-06-26T12:38:53;26.30;97.50
25410;DHT22;13339;50.840;4.346;2023-06-26T12:41:19;26.40;97.50
25410;DHT22;13339;50.840;4.346;2023-06-26T12:43:48;26.50;97.50
25410;DHT22;13339;50.840;4.346;2023-06-26T12:46:14;26.60;97.20
25410;DHT22;13339;50.840;4.346;2023-06-26T12:48:43;26.50;98.00
25410;DHT22;13339;50.840;4.346;2023-06-26T12:51:12;26.60;97.40
25410;DHT22;13339;50.840;4.346;2023-06-26T12:53:38;26.70;97.80
25410;DHT22;13339;50.840;4.346;2023-06-26T12:56:08;26.60;98.20
25410;DHT22;13339;50.840;4.346;2023-06-26T12:58:35;26.60;98.00
25410;DHT22;13339;50.840;4.346;2023-06-26T13:01:04;26.40;97.60
25410;DHT22;13339;50.840;4.346;2023-06-26T13:03:30;26.30;98.10
25410;DHT22;13339;50.840;4.346;2023-06-26T13:05:55;26.30;98.30
25410;DHT22;13339;50.840;4.346;2023-06-26T13:08:21;26.30;98.00
25410;DHT22;13339;50.840;4.346;2023-06-26T13:10:46;26.20;98.00
25410;DHT22;13339;50.840;4.346;2023-06-26T13:13:12;26.20;98.30
25410;DHT22;13339;50.840;4.346;2023-06-26T13:15:37;26.20;98.30
25410;DHT22;13339;50.840;4.346;2023-06-26T13:18:03;26.00;98.50
25410;DHT22;13339;50.840;4.346;2023-06-26T13:20:29;26.00;99.00
25410;DHT22;13339;50.840;4.346;2023-06-26T13:22:55;26.00;98.80
25410;DHT22;13339;50.840;4.346;2023-06-26T13:25:21;25.90;99.20
25410;DHT22;13339;50.840;4.346;2023-06-26T13:27:47;26.10;99.60
25410;DHT22;13339;50.840;4.346;2023-06-26T13:30:14;26.30;99.40
25410;DHT22;13339;50.840;4.346;2023-06-26T13:32:40;26.40;98.70
25410;DHT22;13339;50.840;4.346;2023-06-26T13:35:06;26.50;97.50
25410;DHT22;13339;50.840;4.346;2023-06-26T13:37:32;26.60;96.60
25410;DHT22;13339;50.840;4.346;2023-06-26T13:39:59;26.60;97.00
25410;DHT22;13339;50.840;4.346;2023-06-26T13:42:26;26.50;97.40
25410;DHT22;13339;50.840;4.346;2023-06-26T13:44:52;26.60;97.30
25410;DHT22;13339;50.840;4.346;2023-06-26T13:47:17;26.70;97.30
25410;DHT22;13339;50.840;4.346;2023-06-26T13:49:43;26.90;97.20
25410;DHT22;13339;50.840;4.346;2023-06-26T13:52:08;27.20;97.80
25410;DHT22;13339;50.840;4.346;2023-06-26T13:54:35;27.50;97.70
25410;DHT22;13339;50.840;4.346;2023-06-26T13:57:02;27.60;97.20
25410;DHT22;13339;50.840;4.346;2023-06-26T13:59:28;27.30;96.00
25410;DHT22;13339;50.840;4.346;2023-06-26T14:01:54;27.10;95.60
25410;DHT22;13339;50.840;4.346;2023-06-26T14:04:19;26.90;96.00
25410;DHT22;13339;50.840;4.346;2023-06-26T14:06:46;26.90;96.30
25410;DHT22;13339;50.840;4.346;2023-06-26T14:09:12;27.00;95.60
25410;DHT22;13339;50.840;4.346;2023-06-26T14:11:37;27.10;94.60
25410;DHT22;13339;50.840;4.346;2023-06-26T14:14:03;27.30;94.00
25410;DHT22;13339;50.840;4.346;2023-06-26T14:16:28;27.20;93.00
25410;DHT22;13339;50.840;4.346;2023-06-26T14:18:55;26.90;93.00
25410;DHT22;13339;50.840;4.346;2023-06-26T14:21:20;26.80;92.60
25410;DHT22;13339;50.840;4.346;2023-06-26T14:23:46;26.70;93.60
25410;DHT22;13339;50.840;4.346;2023-06-26T14:26:12;26.80;93.70
25410;DHT22;13339;50.840;4.346;2023-06-26T14:28:38;26.90;93.50
25410;DHT22;13339;50.840;4.346;2023-06-26T14:31:05;26.90;93.60
25410;DHT22;13339;50.840;4.346;2023-06-26T14:33:30;27.10;95.20
25410;DHT22;13339;50.840;4.346;2023-06-26T14:35:56;27.00;95.60
25410;DHT22;13339;50.840;4.346;2023-06-26T14:38:22;27.00;95.90
25410;DHT22;13339;50.840;4.346;2023-06-26T14:40:47;27.00;94.90
25410;DHT22;13339;50.840;4.346;2023-06-26T14:43:13;26.90;95.00
25410;DHT22;13339;50.840;4.346;2023-06-26T14:45:39;26.70;95.00
25410;DHT22;13339;50.840;4.346;2023-06-26T14:48:04;26.70;95.10
25410;DHT22;13339;50.840;4.346;2023-06-26T14:50:30;26.60;95.40
25410;DHT22;13339;50.840;4.346;2023-06-26T14:52:56;26.60;96.00
25410;DHT22;13339;50.840;4.346;2023-06-26T14:55:21;26.60;96.50
25410;DHT22;13339;50.840;4.346;2023-06-26T14:57:47;26.50;96.30
25410;DHT22;13339;50.840;4.346;2023-06-26T15:00:13;26.40;96.50
25410;DHT22;13339;50.840;4.346;2023-06-26T15:02:39;26.50;96.50
25410;DHT22;13339;50.840;4.346;2023-06-26T15:05:04;26.50;96.50
25410;DHT22;13339;50.840;4.346;2023-06-26T15:07:30;26.60;96.90
25410;DHT22;13339;50.840;4.346;2023-06-26T15:09:56;26.70;96.20
25410;DHT22;13339;50.840;4.346;2023-06-26T15:12:22;26.60;96.40
25410;DHT22;13339;50.840;4.346;2023-06-26T15:14:49;26.40;96.80
25410;DHT22;13339;50.840;4.346;2023-06-26T15:17:14;26.20;97.10
25410;DHT22;13339;50.840;4.346;2023-06-26T15:19:40;26.20;97.90
25410;DHT22;13339;50.840;4.346;2023-06-26T15:22:06;26.20;98.20
25410;DHT22;13339;50.840;4.346;2023-06-26T15:24:32;26.20;98.40
25410;DHT22;13339;50.840;4.346;2023-06-26T15:26:57;25.80;98.70
25410;DHT22;13339;50.840;4.346;2023-06-26T15:29:23;25.70;99.40
25410;DHT22;13339;50.840;4.346;2023-06-26T15:31:49;25.90;99.70
25410;DHT22;13339;50.840;4.346;2023-06-26T15:34:14;25.90;98.80
25410;DHT22;13339;50.840;4.346;2023-06-26T15:36:40;25.80;98.90
25410;DHT22;13339;50.840;4.346;2023-06-26T15:39:05;25.90;99.30
25410;DHT22;13339;50.840;4.346;2023-06-26T15:41:31;25.90;98.90
25410;DHT22;13339;50.840;4.346;2023-06-26T15:43:56;26.00;99.40
25410;DHT22;13339;50.840;4.346;2023-06-26T15:46:22;26.00;99.10
25410;DHT22;13339;50.840;4.346;2023-06-26T15:48:48;26.00;99.00
25410;DHT22;13339;50.840;4.346;2023-06-26T15:51:14;25.90;99.20
25410;DHT22;13339;50.840;4.346;2023-06-26T15:53:40;25.80;98.70
25410;DHT22;13339;50.840;4.346;2023-06-26T15:56:08;25.80;98.60